createdAt,value
2023-02-27T00:01:03.648Z,-11.40
2023-02-27T00:03:33.835Z,-11.30
2023-02-27T00:06:05.558Z,-11.30
2023-02-27T00:08:35.673Z,-11.20
2023-02-27T00:11:06.136Z,-10.80
2023-02-27T00:13:36.255Z,-10.40
2023-02-27T00:16:06.654Z,-10.10
2023-02-27T00:18:37.325Z,-10.00
2023-02-27T00:21:09.394Z,-10.00
2023-02-27T00:23:39.859Z,-10.20
2023-02-27T00:26:09.918Z,-10.30
2023-02-27T00:28:40.048Z,-10.60
2023-02-27T00:31:10.858Z,-10.80
2023-02-27T00:33:41.547Z,-11.00
2023-02-27T00:36:13.217Z,-11.20
2023-02-27T00:38:43.270Z,-11.30
2023-02-27T00:41:13.412Z,-11.40
2023-02-27T00:43:43.583Z,-11.50
2023-02-27T00:46:13.921Z,-11.50
2023-02-27T00:48:44.296Z,-11.60
2023-02-27T00:51:17.326Z,-11.50
2023-02-27T00:53:47.797Z,-11.30
2023-02-27T00:56:17.835Z,-11.30
2023-02-27T00:58:47.962Z,-11.00
2023-02-27T01:01:18.082Z,-10.80
2023-02-27T01:03:48.183Z,-10.80
2023-02-27T01:06:20.048Z,-10.80
2023-02-27T01:08:50.397Z,-10.80
2023-02-27T01:11:20.615Z,-10.90
2023-02-27T01:13:50.810Z,-10.90
2023-02-27T01:16:20.960Z,-10.90
2023-02-27T01:18:51.035Z,-11.00
2023-02-27T01:21:22.999Z,-10.90
2023-02-27T01:23:53.568Z,-10.90
2023-02-27T01:26:24.024Z,-10.80
2023-02-27T01:28:54.218Z,-10.80
2023-02-27T01:31:25.187Z,-10.60
2023-02-27T01:33:55.528Z,-10.60
2023-02-27T01:36:40.228Z,-10.50
2023-02-27T01:39:10.707Z,-10.40
2023-02-27T01:41:41.092Z,-10.30
2023-02-27T01:44:13.173Z,-10.30
2023-02-27T01:46:43.584Z,-10.30
2023-02-27T01:49:18.187Z,-10.20
2023-02-27T01:51:52.217Z,-10.10
2023-02-27T01:54:26.594Z,-10.00
2023-02-27T01:56:58.009Z,-10.00
2023-02-27T01:59:28.158Z,-9.90
2023-02-27T02:01:59.809Z,-9.90
2023-02-27T02:04:33.620Z,-9.90
2023-02-27T02:07:08.645Z,-9.80
2023-02-27T02:09:44.187Z,-9.70
2023-02-27T02:12:16.147Z,-9.70
2023-02-27T02:14:46.309Z,-9.60
2023-02-27T02:17:20.943Z,-9.50
2023-02-27T02:20:21.978Z,-9.50
2023-02-27T02:23:37.272Z,-9.40
2023-02-27T02:26:25.059Z,-9.30
2023-02-27T02:29:25.624Z,-9.30
2023-02-27T02:32:47.446Z,-9.30
2023-02-27T02:35:49.841Z,-9.20
2023-02-27T02:38:48.461Z,-9.10
2023-02-27T02:41:25.940Z,-9.00
2023-02-27T02:44:05.099Z,-8.90
2023-02-27T02:46:43.055Z,-8.80
2023-02-27T02:49:21.799Z,-8.70
2023-02-27T02:51:56.405Z,-8.60
2023-02-27T02:54:36.194Z,-8.50
2023-02-27T02:57:11.488Z,-8.30
2023-02-27T02:59:46.148Z,-8.20
2023-02-27T03:02:20.824Z,-8.20
2023-02-27T03:04:55.743Z,-8.00
2023-02-27T03:07:30.896Z,-7.80
2023-02-27T03:10:08.457Z,-7.70
2023-02-27T03:12:41.748Z,-7.50
2023-02-27T03:15:18.360Z,-7.40
2023-02-27T03:17:53.981Z,-7.20
2023-02-27T03:20:27.082Z,-7.10
2023-02-27T03:23:00.675Z,-6.90
2023-02-27T03:25:33.480Z,-6.70
2023-02-27T03:28:06.613Z,-6.60
2023-02-27T03:30:40.647Z,-6.50
2023-02-27T03:33:15.345Z,-6.40
2023-02-27T03:35:51.037Z,-6.30
2023-02-27T03:38:28.492Z,-6.10
2023-02-27T03:41:08.222Z,-6.00
2023-02-27T03:43:50.042Z,-5.90
2023-02-27T03:46:23.510Z,-5.90
2023-02-27T03:48:53.609Z,-5.80
2023-02-27T03:51:24.989Z,-5.90
2023-02-27T03:54:00.675Z,-6.00
2023-02-27T03:56:37.818Z,-6.20
2023-02-27T03:59:09.432Z,-6.40
2023-02-27T04:01:39.831Z,-6.50
2023-02-27T04:04:13.429Z,-6.80
2023-02-27T04:07:05.064Z,-7.00
2023-02-27T04:09:50.704Z,-7.20
2023-02-27T04:12:38.736Z,-7.40
2023-02-27T04:15:16.644Z,-7.60
2023-02-27T04:17:57.824Z,-7.70
2023-02-27T04:20:42.540Z,-7.60
2023-02-27T04:23:19.818Z,-7.50
2023-02-27T04:26:11.791Z,-7.40
2023-02-27T04:28:47.698Z,-7.60
2023-02-27T04:31:25.255Z,-7.70
2023-02-27T04:34:02.197Z,-7.70
2023-02-27T04:36:37.417Z,-7.70
2023-02-27T04:39:10.438Z,-7.60
2023-02-27T04:41:45.494Z,-7.40
2023-02-27T04:44:38.532Z,-7.20
2023-02-27T04:47:11.857Z,-7.10
2023-02-27T04:49:47.422Z,-7.10
2023-02-27T04:52:22.326Z,-7.10
2023-02-27T04:54:56.492Z,-7.10
2023-02-27T04:57:32.582Z,-7.10
2023-02-27T05:00:08.200Z,-7.10
2023-02-27T05:02:40.941Z,-7.10
2023-02-27T05:05:17.168Z,-7.10
2023-02-27T05:07:53.738Z,-7.20
2023-02-27T05:10:33.018Z,-7.20
2023-02-27T05:13:08.698Z,-7.20
2023-02-27T05:15:45.812Z,-7.30
2023-02-27T05:18:18.777Z,-7.30
2023-02-27T05:20:56.462Z,-7.30
2023-02-27T05:23:35.570Z,-7.30
2023-02-27T05:26:15.446Z,-7.30
2023-02-27T05:28:53.200Z,-7.30
2023-02-27T05:31:30.940Z,-7.30
2023-02-27T05:34:07.563Z,-7.30
2023-02-27T05:36:42.135Z,-7.30
2023-02-27T05:39:14.500Z,-7.30
2023-02-27T05:41:49.534Z,-7.40
2023-02-27T05:44:22.845Z,-7.50
2023-02-27T05:46:58.330Z,-7.60
2023-02-27T05:49:31.212Z,-7.70
2023-02-27T05:52:04.625Z,-7.80
2023-02-27T05:54:39.644Z,-7.90
2023-02-27T05:57:14.885Z,-7.80
2023-02-27T05:59:50.418Z,-7.90
2023-02-27T06:02:22.206Z,-7.90
2023-02-27T06:04:52.594Z,-7.90
2023-02-27T06:07:22.768Z,-7.90
2023-02-27T06:09:53.617Z,-7.90
2023-02-27T06:12:23.696Z,-7.90
2023-02-27T06:14:53.866Z,-7.90
2023-02-27T06:17:25.552Z,-7.90
2023-02-27T06:19:55.748Z,-7.90
2023-02-27T06:22:25.839Z,-8.00
2023-02-27T06:24:55.874Z,-8.00
2023-02-27T06:27:27.474Z,-8.10
2023-02-27T06:29:58.291Z,-8.10
2023-02-27T06:32:30.628Z,-8.10
2023-02-27T06:35:00.667Z,-8.10
2023-02-27T06:37:30.786Z,-8.20
2023-02-27T06:40:00.943Z,-8.30
2023-02-27T06:42:31.053Z,-8.40
2023-02-27T06:45:01.398Z,-8.50
2023-02-27T06:47:33.264Z,-8.50
2023-02-27T06:50:04.424Z,-8.50
2023-02-27T06:52:34.520Z,-8.60
2023-02-27T06:55:05.129Z,-8.60
2023-02-27T06:57:35.686Z,-8.70
2023-02-27T07:00:07.835Z,-8.80
2023-02-27T07:02:39.483Z,-9.00
2023-02-27T07:05:11.676Z,-9.20
2023-02-27T07:07:42.109Z,-9.40
2023-02-27T07:10:15.069Z,-9.50
2023-02-27T07:12:45.247Z,-9.70
2023-02-27T07:15:15.522Z,-9.80
2023-02-27T07:17:47.392Z,-10.00
2023-02-27T07:20:17.488Z,-10.20
2023-02-27T07:22:47.935Z,-10.40
2023-02-27T07:25:18.039Z,-10.60
2023-02-27T07:27:50.476Z,-10.60
2023-02-27T07:30:21.615Z,-10.80
2023-02-27T07:32:53.986Z,-11.00
2023-02-27T07:35:24.033Z,-11.10
2023-02-27T07:37:54.231Z,-11.10
2023-02-27T07:40:24.447Z,-11.10
2023-02-27T07:42:54.788Z,-11.20
2023-02-27T07:45:24.865Z,-11.20
2023-02-27T07:47:56.601Z,-11.20
2023-02-27T07:50:26.753Z,-11.30
2023-02-27T07:52:56.829Z,-11.40
2023-02-27T07:55:26.882Z,-11.60
2023-02-27T07:57:57.003Z,-11.70
2023-02-27T08:00:27.361Z,-11.80
2023-02-27T08:02:59.089Z,-11.70
2023-02-27T08:05:29.268Z,-11.70
2023-02-27T08:07:59.498Z,-11.70
2023-02-27T08:10:29.653Z,-11.60
2023-02-27T08:12:59.740Z,-11.70
2023-02-27T08:15:29.863Z,-11.70
2023-02-27T08:18:01.822Z,-11.70
2023-02-27T08:20:32.661Z,-11.80
2023-02-27T08:23:02.887Z,-11.90
2023-02-27T08:25:33.070Z,-12.10
2023-02-27T08:28:03.393Z,-12.40
2023-02-27T08:30:34.209Z,-12.60
2023-02-27T08:33:06.028Z,-12.70
2023-02-27T08:35:36.133Z,-12.70
2023-02-27T08:38:06.294Z,-12.80
2023-02-27T08:40:36.354Z,-12.80
2023-02-27T08:43:06.615Z,-12.80
2023-02-27T08:45:36.757Z,-12.80
2023-02-27T08:48:09.619Z,-12.90
2023-02-27T08:50:39.810Z,-13.00
2023-02-27T08:53:09.923Z,-12.90
2023-02-27T08:55:40.221Z,-12.90
2023-02-27T08:58:10.650Z,-12.80
2023-02-27T09:00:40.775Z,-12.70
2023-02-27T09:03:12.515Z,-12.50
2023-02-27T09:05:43.128Z,-12.50
2023-02-27T09:08:13.344Z,-12.40
2023-02-27T09:10:43.948Z,-12.60
2023-02-27T09:13:14.006Z,-12.80
2023-02-27T09:15:44.050Z,-12.90
2023-02-27T09:18:15.990Z,-13.00
2023-02-27T09:20:46.406Z,-13.20
2023-02-27T09:23:16.699Z,-13.40
2023-02-27T09:25:46.836Z,-13.50
2023-02-27T09:28:17.085Z,-13.50
2023-02-27T09:30:47.657Z,-13.70
2023-02-27T09:33:19.431Z,-13.80
2023-02-27T09:35:49.549Z,-13.90
2023-02-27T09:38:19.639Z,-13.90
2023-02-27T09:40:52.404Z,-13.80
2023-02-27T09:43:26.315Z,-13.70
2023-02-27T09:45:58.270Z,-13.70
2023-02-27T09:48:34.769Z,-13.80
2023-02-27T09:51:05.640Z,-13.90
2023-02-27T09:53:40.348Z,-13.90
2023-02-27T09:56:28.809Z,-13.80
2023-02-27T09:59:05.290Z,-13.80
2023-02-27T10:01:39.093Z,-13.70
2023-02-27T10:04:26.853Z,-13.70
2023-02-27T10:07:01.288Z,-13.60
2023-02-27T10:09:42.600Z,-13.50
2023-02-27T10:12:46.238Z,-13.50
2023-02-27T10:15:23.234Z,-13.30
2023-02-27T10:17:55.441Z,-13.10
2023-02-27T10:20:31.136Z,-13.00
2023-02-27T10:23:04.007Z,-13.10
2023-02-27T10:25:41.185Z,-13.10
2023-02-27T10:28:15.508Z,-13.20
2023-02-27T10:30:49.918Z,-13.20
2023-02-27T10:33:28.596Z,-13.20
2023-02-27T10:36:02.158Z,-13.20
2023-02-27T10:38:38.081Z,-13.20
2023-02-27T10:41:12.365Z,-13.30
2023-02-27T10:43:43.143Z,-13.40
2023-02-27T10:46:17.703Z,-13.30
2023-02-27T10:48:48.073Z,-13.30
2023-02-27T10:51:29.061Z,-13.20
2023-02-27T10:54:18.624Z,-13.20
2023-02-27T10:56:52.858Z,-13.20
2023-02-27T10:59:26.016Z,-13.10
2023-02-27T11:01:58.602Z,-13.10
2023-02-27T11:04:36.183Z,-13.10
2023-02-27T11:07:10.677Z,-13.20
2023-02-27T11:09:40.861Z,-13.40
2023-02-27T11:12:21.569Z,-13.50
2023-02-27T11:14:53.378Z,-13.50
2023-02-27T11:17:26.631Z,-13.60
2023-02-27T11:19:57.046Z,-13.30
2023-02-27T11:22:30.208Z,-13.20
2023-02-27T11:25:22.879Z,-13.20
2023-02-27T11:27:53.629Z,-13.30
2023-02-27T11:30:28.984Z,-13.40
2023-02-27T11:33:01.915Z,-13.50
2023-02-27T11:35:33.818Z,-13.60
2023-02-27T11:38:07.097Z,-13.70
2023-02-27T11:40:41.683Z,-13.80
2023-02-27T11:43:21.107Z,-13.80
2023-02-27T11:46:21.437Z,-13.80
2023-02-27T11:48:51.622Z,-13.90
2023-02-27T11:51:34.819Z,-13.90
2023-02-27T11:54:17.907Z,-13.90
2023-02-27T11:56:50.670Z,-13.90
2023-02-27T11:59:28.856Z,-13.80
2023-02-27T12:02:05.384Z,-13.90
2023-02-27T12:04:46.526Z,-13.90
2023-02-27T12:07:23.409Z,-13.90
2023-02-27T12:10:03.190Z,-14.00
2023-02-27T12:12:38.336Z,-14.00
2023-02-27T12:15:29.981Z,-14.00
2023-02-27T12:18:09.857Z,-13.90
2023-02-27T12:20:43.892Z,-13.90
2023-02-27T12:23:21.787Z,-13.90
2023-02-27T12:25:58.322Z,-13.80
2023-02-27T12:28:41.732Z,-13.70
2023-02-27T12:31:34.823Z,-13.70
2023-02-27T12:34:14.124Z,-13.60
2023-02-27T12:36:44.438Z,-13.40
2023-02-27T12:39:21.778Z,-13.30
2023-02-27T12:42:28.864Z,-13.40
2023-02-27T12:45:28.616Z,-13.40
2023-02-27T12:48:07.672Z,-13.20
2023-02-27T12:50:48.433Z,-13.10
2023-02-27T12:53:34.512Z,-13.00
2023-02-27T12:56:24.970Z,-13.00
2023-02-27T12:59:08.229Z,-13.00
2023-02-27T13:01:49.629Z,-13.00
2023-02-27T13:04:26.442Z,-13.00
2023-02-27T13:07:04.893Z,-12.90
2023-02-27T13:09:41.429Z,-12.90
2023-02-27T13:12:27.272Z,-12.90
2023-02-27T13:15:05.070Z,-12.80
2023-02-27T13:17:40.221Z,-12.70
2023-02-27T13:20:28.865Z,-12.50
2023-02-27T13:23:10.585Z,-12.40
2023-02-27T13:25:44.507Z,-12.30
2023-02-27T13:28:18.817Z,-12.10
2023-02-27T13:31:02.055Z,-11.90
2023-02-27T13:33:36.844Z,-11.60
2023-02-27T13:36:14.111Z,-11.30
2023-02-27T13:38:46.036Z,-11.00
2023-02-27T13:41:38.935Z,-10.80
2023-02-27T13:44:40.667Z,-10.50
2023-02-27T13:47:52.559Z,-10.20
2023-02-27T13:50:55.789Z,-9.90
2023-02-27T13:53:25.954Z,-9.60
2023-02-27T13:56:01.630Z,-9.40
2023-02-27T13:58:31.829Z,-9.20
2023-02-27T14:01:06.163Z,-9.00
2023-02-27T14:03:36.632Z,-8.60
2023-02-27T14:06:09.117Z,-8.20
2023-02-27T14:08:52.214Z,-8.00
2023-02-27T14:11:27.091Z,-7.90
2023-02-27T14:14:10.462Z,-7.80
2023-02-27T14:17:00.134Z,-7.60
2023-02-27T14:19:52.319Z,-7.40
2023-02-27T14:22:46.244Z,-7.40
2023-02-27T14:25:32.583Z,-7.70
2023-02-27T14:28:04.374Z,-7.80
2023-02-27T14:30:38.540Z,-7.70
2023-02-27T14:33:37.746Z,-7.70
2023-02-27T14:36:16.922Z,-7.50
2023-02-27T14:38:49.486Z,-7.60
2023-02-27T14:41:34.866Z,-7.70
2023-02-27T14:44:05.341Z,-7.60
2023-02-27T14:46:39.606Z,-7.50
2023-02-27T14:49:20.171Z,-7.40
2023-02-27T14:51:51.213Z,-7.40
2023-02-27T14:54:25.205Z,-7.20
2023-02-27T14:57:00.325Z,-7.30
2023-02-27T14:59:34.546Z,-7.30
2023-02-27T15:02:06.191Z,-7.10
2023-02-27T15:04:36.361Z,-7.10
2023-02-27T15:07:06.592Z,-7.00
2023-02-27T15:09:43.509Z,-7.00
2023-02-27T15:12:20.272Z,-6.90
2023-02-27T15:14:53.137Z,-6.70
2023-02-27T15:17:25.425Z,-6.50
2023-02-27T15:19:57.798Z,-6.20
2023-02-27T15:22:40.166Z,-6.10
2023-02-27T15:25:30.871Z,-6.10
2023-02-27T15:28:05.048Z,-6.10
2023-02-27T15:30:36.162Z,-5.90
2023-02-27T15:33:07.705Z,-5.60
2023-02-27T15:35:40.365Z,-5.50
2023-02-27T15:38:25.715Z,-5.30
2023-02-27T15:40:58.233Z,-4.70
2023-02-27T15:43:30.075Z,-4.30
2023-02-27T15:46:01.004Z,-4.10
2023-02-27T15:53:52.587Z,-3.00
2023-02-27T15:56:27.813Z,-2.70
2023-02-27T15:59:00.984Z,-2.50
2023-02-27T16:01:33.305Z,-2.70
2023-02-27T16:04:05.960Z,-2.60
2023-02-27T16:06:38.263Z,-2.60
2023-02-27T16:09:23.059Z,-2.20
2023-02-27T16:12:11.733Z,-2.20
2023-02-27T16:14:43.652Z,-2.00
2023-02-27T16:17:28.125Z,-2.10
2023-02-27T16:20:01.907Z,-1.60
2023-02-27T16:22:32.460Z,-1.40
2023-02-27T16:25:13.057Z,-0.80
2023-02-27T16:27:43.276Z,-0.40
2023-02-27T16:30:14.893Z,-0.60
2023-02-27T16:32:45.950Z,-0.30
2023-02-27T16:35:21.183Z,-0.50
2023-02-27T16:37:52.155Z,0.10
2023-02-27T16:40:25.729Z,0.80
2023-02-27T16:43:03.774Z,0.60
2023-02-27T16:45:34.172Z,1.00
2023-02-27T16:48:05.146Z,0.80
2023-02-27T16:50:40.182Z,1.50
2023-02-27T16:53:11.604Z,1.90
2023-02-27T16:55:44.447Z,2.20
2023-02-27T16:58:16.592Z,2.70
2023-02-27T17:00:46.991Z,2.70
2023-02-27T17:03:17.057Z,3.00
2023-02-27T17:05:47.155Z,3.00
2023-02-27T17:08:17.317Z,2.80
2023-02-27T17:10:49.085Z,2.70
2023-02-27T17:13:19.328Z,3.10
2023-02-27T17:15:50.016Z,3.00
2023-02-27T17:18:20.061Z,3.10
2023-02-27T17:20:51.762Z,3.50
2023-02-27T17:23:22.338Z,3.90
2023-02-27T17:25:55.519Z,4.40
2023-02-27T17:28:26.256Z,4.20
2023-02-27T17:30:57.499Z,3.80
2023-02-27T17:33:27.647Z,3.80
2023-02-27T17:36:05.163Z,4.00
2023-02-27T17:38:35.786Z,4.10
2023-02-27T17:41:11.531Z,3.70
2023-02-27T17:43:42.074Z,3.70
2023-02-27T17:46:15.381Z,3.40
2023-02-27T17:48:45.762Z,2.70
2023-02-27T17:51:18.757Z,2.70
2023-02-27T17:53:48.991Z,2.50
2023-02-27T17:56:21.137Z,2.60
2023-02-27T17:58:51.329Z,2.40
2023-02-27T18:01:26.470Z,2.20
2023-02-27T18:03:57.657Z,2.50
2023-02-27T18:06:28.265Z,2.70
2023-02-27T18:08:58.469Z,2.30
2023-02-27T18:11:30.379Z,2.30
2023-02-27T18:14:01.048Z,1.40
2023-02-27T18:16:31.584Z,1.60
2023-02-27T18:19:04.624Z,1.60
2023-02-27T18:21:35.901Z,2.10
2023-02-27T18:24:06.219Z,2.60
2023-02-27T18:26:38.350Z,2.30
2023-02-27T18:29:10.293Z,2.50
2023-02-27T18:31:43.341Z,2.10
2023-02-27T18:34:14.442Z,1.90
2023-02-27T18:36:44.752Z,1.30
2023-02-27T18:39:14.964Z,1.60
2023-02-27T18:41:47.461Z,2.00
2023-02-27T18:44:17.718Z,2.20
2023-02-27T18:46:47.887Z,2.00
2023-02-27T18:49:18.247Z,1.50
2023-02-27T18:51:49.514Z,1.90
2023-02-27T18:54:19.546Z,1.70
2023-02-27T18:56:53.376Z,1.70
2023-02-27T18:59:23.505Z,1.00
2023-02-27T19:01:54.557Z,0.70
2023-02-27T19:04:26.045Z,0.60
2023-02-27T19:07:04.332Z,1.20
2023-02-27T19:09:34.928Z,1.00
2023-02-27T19:12:07.400Z,0.70
2023-02-27T19:14:37.573Z,1.00
2023-02-27T19:17:08.123Z,1.20
2023-02-27T19:19:38.751Z,1.70
2023-02-27T19:22:09.335Z,1.80
2023-02-27T19:24:39.368Z,1.40
2023-02-27T19:27:11.079Z,0.90
2023-02-27T19:29:41.172Z,1.00
2023-02-27T19:32:11.356Z,0.90
2023-02-27T19:34:41.431Z,0.50
2023-02-27T19:37:11.552Z,0.70
2023-02-27T19:39:41.678Z,0.80
2023-02-27T19:42:14.169Z,0.20
2023-02-27T19:44:44.595Z,0.30
2023-02-27T19:47:16.009Z,0.10
2023-02-27T19:49:46.412Z,0.10
2023-02-27T19:52:17.631Z,-0.20
2023-02-27T19:54:47.860Z,-0.30
2023-02-27T19:57:20.732Z,-0.40
2023-02-27T19:59:51.208Z,-0.20
2023-02-27T20:02:21.614Z,-0.10
2023-02-27T20:04:52.924Z,-0.20
2023-02-27T20:07:23.475Z,-0.20
2023-02-27T20:09:53.689Z,-0.40
2023-02-27T20:12:26.319Z,-0.60
2023-02-27T20:14:56.360Z,-0.80
2023-02-27T20:17:26.694Z,-0.50
2023-02-27T20:19:57.571Z,-0.60
2023-02-27T20:22:27.678Z,-0.60
2023-02-27T20:24:59.012Z,-0.80
2023-02-27T20:27:31.001Z,-0.80
2023-02-27T20:30:01.128Z,-1.10
2023-02-27T20:32:31.702Z,-1.20
2023-02-27T20:35:02.049Z,-1.40
2023-02-27T20:37:49.870Z,-1.70
2023-02-27T20:40:20.071Z,-2.00
2023-02-27T20:42:51.809Z,-2.10
2023-02-27T20:45:22.486Z,-2.40
2023-02-27T20:47:52.674Z,-2.50
2023-02-27T20:50:22.923Z,-2.50
2023-02-27T20:52:57.396Z,-2.60
2023-02-27T20:55:27.564Z,-2.80
2023-02-27T20:57:59.401Z,-3.00
2023-02-27T21:00:29.654Z,-3.00
2023-02-27T21:03:02.666Z,-3.10
2023-02-27T21:05:33.273Z,-3.20
2023-02-27T21:08:03.385Z,-3.40
2023-02-27T21:10:33.705Z,-3.40
2023-02-27T21:13:05.672Z,-3.60
2023-02-27T21:15:37.745Z,-3.70
2023-02-27T21:18:09.534Z,-3.70
2023-02-27T21:20:42.648Z,-3.90
2023-02-27T21:23:13.368Z,-3.90
2023-02-27T21:25:44.473Z,-4.00
2023-02-27T21:28:16.143Z,-4.10
2023-02-27T21:30:46.438Z,-4.30
2023-02-27T21:33:16.818Z,-4.30
2023-02-27T21:35:48.559Z,-4.30
2023-02-27T21:38:19.368Z,-4.50
2023-02-27T21:40:49.855Z,-4.50
2023-02-27T21:43:21.878Z,-4.60
2023-02-27T21:45:52.667Z,-4.70
2023-02-27T21:48:22.782Z,-4.70
2023-02-27T21:50:52.996Z,-4.70
2023-02-27T21:53:23.864Z,-4.80
2023-02-27T21:55:55.163Z,-4.90
2023-02-27T21:58:27.290Z,-4.90
2023-02-27T22:00:57.381Z,-4.90
2023-02-27T22:03:35.549Z,-5.00
2023-02-27T22:06:07.515Z,-5.00
2023-02-27T22:08:37.625Z,-5.00
2023-02-27T22:11:08.477Z,-5.10
2023-02-27T22:13:40.678Z,-5.20
2023-02-27T22:16:12.338Z,-5.30
2023-02-27T22:18:43.482Z,-5.40
2023-02-27T22:21:16.688Z,-5.40
2023-02-27T22:23:47.502Z,-5.50
2023-02-27T22:26:19.477Z,-5.50
2023-02-27T22:28:51.501Z,-5.50
2023-02-27T22:31:24.486Z,-5.60
2023-02-27T22:33:56.273Z,-5.60
2023-02-27T22:36:28.053Z,-5.70
2023-02-27T22:38:58.473Z,-5.70
2023-02-27T22:41:31.242Z,-5.70
2023-02-27T22:44:03.731Z,-5.80
2023-02-27T22:46:35.389Z,-5.80
2023-02-27T22:49:07.146Z,-5.80
2023-02-27T22:51:38.461Z,-5.90
2023-02-27T22:54:09.784Z,-5.90
2023-02-27T22:56:40.051Z,-5.90
2023-02-27T22:59:11.877Z,-5.90
2023-02-27T23:01:44.431Z,-5.90
2023-02-27T23:04:16.747Z,-6.00
2023-02-27T23:06:47.219Z,-6.00
2023-02-27T23:09:20.144Z,-6.00
2023-02-27T23:11:50.219Z,-6.00
2023-02-27T23:14:23.802Z,-6.00
2023-02-27T23:16:53.843Z,-6.00
2023-02-27T23:19:24.704Z,-6.00
2023-02-27T23:21:54.940Z,-6.00
2023-02-27T23:24:25.739Z,-6.00
2023-02-27T23:26:56.838Z,-6.10
2023-02-27T23:29:28.685Z,-6.10
2023-02-27T23:31:59.092Z,-6.10
2023-02-27T23:34:40.614Z,-6.10
2023-02-27T23:37:17.903Z,-6.10
2023-02-27T23:39:48.016Z,-6.10
2023-02-27T23:42:18.022Z,-6.10
2023-02-27T23:45:07.649Z,-6.10
2023-02-27T23:47:46.948Z,-6.10
2023-02-27T23:50:17.704Z,-6.10
2023-02-27T23:52:48.657Z,-6.20
2023-02-27T23:55:20.101Z,-6.20
2023-02-27T23:57:53.287Z,-6.20
